Time;durP1;ratioP1;P1;durP2;ratioP2;P2;SDS_P1;SDS_P2;PMS_P1;PMS_P2;Temp;Humidity;BMP_temperature;BMP_pressure;BME280_temperature;BME280_humidity;BME280_pressure;Samples;Min_cycle;Max_cycle;Signal;HPM_P1;HPM_P2
2023/09/24 00:00:48;;;;;;;;;;;12.00;99.90;;;;;;5153774;27;20015;-44
2023/09/24 00:03:14;;;;;;;;;;;12.00;99.90;;;;;;5143738;27;20377;-42
2023/09/24 00:05:41;;;;;;;;;;;12.00;99.90;;;;;;5155615;27;19907;-44
2023/09/24 00:08:08;;;;;;;;;;;12.10;99.90;;;;;;5139714;27;19911;-44
2023/09/24 00:10:34;;;;;;;;;;;12.10;99.90;;;;;;5134729;27;20010;-44
2023/09/24 00:12:59;;;;;;;;;;;12.10;99.90;;;;;;5134724;27;19930;-43
2023/09/24 00:15:27;;;;;;;;;;;12.00;99.90;;;;;;5134802;27;19907;-43
2023/09/24 00:17:52;;;;;;;;;;;12.00;99.90;;;;;;5134643;27;20002;-43
2023/09/24 00:20:19;;;;;;;;;;;12.00;99.90;;;;;;5150430;27;20390;-47
2023/09/24 00:22:46;;;;;;;;;;;12.00;99.90;;;;;;5151359;27;20281;-44
2023/09/24 00:25:14;;;;;;;;;;;12.10;99.90;;;;;;5117209;27;19915;-44
2023/09/24 00:27:43;;;;;;;;;;;12.10;99.90;;;;;;5113963;28;19960;-45
2023/09/24 00:30:09;;;;;;;;;;;12.10;99.90;;;;;;5133565;27;19912;-42
2023/09/24 00:32:35;;;;;;;;;;;12.10;99.90;;;;;;5134053;27;19920;-44
2023/09/24 00:35:01;;;;;;;;;;;12.10;99.90;;;;;;5134417;27;19953;-44
2023/09/24 00:37:27;;;;;;;;;;;12.10;99.90;;;;;;5134138;27;19919;-44
2023/09/24 00:39:52;;;;;;;;;;;12.10;99.90;;;;;;5134279;27;19911;-43
2023/09/24 00:42:18;;;;;;;;;;;12.10;99.90;;;;;;5134215;27;19908;-45
2023/09/24 00:44:43;;;;;;;;;;;12.10;99.90;;;;;;5134257;27;20429;-44
2023/09/24 00:47:09;;;;;;;;;;;12.10;99.90;;;;;;5134240;27;20177;-44
2023/09/24 00:49:35;;;;;;;;;;;12.10;99.90;;;;;;5133950;27;19953;-43
2023/09/24 00:52:01;;;;;;;;;;;12.10;99.90;;;;;;5133891;27;19908;-43
2023/09/24 00:54:26;;;;;;;;;;;12.10;99.90;;;;;;5133836;27;20266;-44
2023/09/24 00:56:52;;;;;;;;;;;12.20;99.90;;;;;;5150164;27;19915;-43
2023/09/24 00:59:18;;;;;;;;;;;12.00;99.90;;;;;;5154562;27;19908;-44
2023/09/24 01:01:44;;;;;;;;;;;12.00;99.90;;;;;;5154304;27;19911;-43
2023/09/24 01:04:11;;;;;;;;;;;11.90;99.90;;;;;;5154746;27;19915;-44
2023/09/24 01:06:36;;;;;;;;;;;11.90;99.90;;;;;;5153778;27;19907;-42
2023/09/24 01:09:05;;;;;;;;;;;11.90;99.90;;;;;;5133861;27;19957;-44
2023/09/24 01:11:33;;;;;;;;;;;11.90;99.90;;;;;;5133761;27;19960;-43
2023/09/24 01:13:59;;;;;;;;;;;11.90;99.90;;;;;;5133891;27;19908;-45
2023/09/24 01:16:24;;;;;;;;;;;12.00;99.90;;;;;;5141842;27;19988;-45
2023/09/24 01:18:53;;;;;;;;;;;12.00;99.90;;;;;;5153980;27;19926;-45
2023/09/24 01:21:18;;;;;;;;;;;12.00;99.90;;;;;;5147161;27;20411;-44
2023/09/24 01:23:45;;;;;;;;;;;12.00;99.90;;;;;;5149363;27;19920;-43
2023/09/24 01:26:14;;;;;;;;;;;12.10;99.90;;;;;;5145817;27;19915;-43
2023/09/24 01:28:40;;;;;;;;;;;12.10;99.90;;;;;;5154273;27;19932;-45
2023/09/24 01:31:06;;;;;;;;;;;12.10;99.90;;;;;;5134589;27;19912;-45
2023/09/24 01:33:32;;;;;;;;;;;12.20;99.90;;;;;;5133277;27;20386;-46
2023/09/24 01:35:58;;;;;;;;;;;12.10;99.90;;;;;;5133785;28;19914;-46
2023/09/24 01:38:24;;;;;;;;;;;12.10;99.90;;;;;;5133542;28;19915;-46
2023/09/24 01:40:51;;;;;;;;;;;12.10;99.90;;;;;;5133373;28;19914;-44
2023/09/24 01:43:17;;;;;;;;;;;12.00;99.90;;;;;;5152783;27;20377;-44
2023/09/24 01:45:43;;;;;;;;;;;11.90;99.90;;;;;;5154364;27;19907;-44
2023/09/24 01:48:08;;;;;;;;;;;11.90;99.90;;;;;;5154487;27;19908;-43
2023/09/24 01:50:36;;;;;;;;;;;11.80;99.90;;;;;;5154044;27;19907;-44
2023/09/24 01:53:03;;;;;;;;;;;11.80;99.90;;;;;;5154220;27;19907;-43
2023/09/24 01:55:28;;;;;;;;;;;11.80;99.90;;;;;;5154030;27;19997;-44
2023/09/24 01:57:55;;;;;;;;;;;11.80;99.90;;;;;;5153965;27;20398;-46
2023/09/24 02:00:25;;;;;;;;;;;11.80;99.90;;;;;;5154052;27;20392;-44
2023/09/24 02:02:51;;;;;;;;;;;11.80;99.90;;;;;;5155733;27;19911;-43
2023/09/24 02:05:17;;;;;;;;;;;11.80;99.90;;;;;;5157858;27;19952;-45
2023/09/24 02:07:42;;;;;;;;;;;11.80;99.90;;;;;;5157970;27;20267;-45
2023/09/24 02:10:08;;;;;;;;;;;11.80;99.90;;;;;;5157947;27;19914;-46
2023/09/24 02:12:35;;;;;;;;;;;11.70;99.90;;;;;;5157875;27;19954;-43
2023/09/24 02:15:01;;;;;;;;;;;11.70;99.90;;;;;;5157929;27;19907;-44
2023/09/24 02:17:26;;;;;;;;;;;11.70;99.90;;;;;;5157602;27;19915;-44
2023/09/24 02:19:55;;;;;;;;;;;11.60;99.90;;;;;;5137296;27;19915;-44
2023/09/24 02:22:22;;;;;;;;;;;11.60;99.90;;;;;;5136918;27;20002;-44
2023/09/24 02:24:48;;;;;;;;;;;11.60;99.90;;;;;;5137033;27;19908;-46
2023/09/24 02:27:13;;;;;;;;;;;11.60;99.90;;;;;;5136838;27;20395;-44
2023/09/24 02:29:39;;;;;;;;;;;11.60;99.90;;;;;;5136772;27;19934;-44
2023/09/24 02:32:06;;;;;;;;;;;11.70;99.90;;;;;;5136804;27;19957;-45
2023/09/24 02:34:31;;;;;;;;;;;11.70;99.90;;;;;;5136535;27;20003;-45
2023/09/24 02:36:57;;;;;;;;;;;11.70;99.90;;;;;;5136629;27;19961;-45
2023/09/24 02:39:24;;;;;;;;;;;11.70;99.90;;;;;;5135851;27;20209;-44
2023/09/24 02:41:49;;;;;;;;;;;11.70;99.90;;;;;;5136607;27;20255;-44
2023/09/24 02:44:17;;;;;;;;;;;11.70;99.90;;;;;;5136337;27;19913;-44
2023/09/24 02:46:44;;;;;;;;;;;11.70;99.90;;;;;;5136516;27;19994;-44
2023/09/24 02:49:10;;;;;;;;;;;11.70;99.90;;;;;;5136501;27;19972;-45
2023/09/24 02:51:35;;;;;;;;;;;11.70;99.90;;;;;;5136334;27;19908;-45
2023/09/24 02:54:01;;;;;;;;;;;11.80;99.90;;;;;;5136378;27;20018;-45
2023/09/24 02:56:28;;;;;;;;;;;11.70;99.90;;;;;;5136289;27;19960;-45
2023/09/24 02:58:54;;;;;;;;;;;11.70;99.90;;;;;;5136123;27;19916;-45
2023/09/24 03:01:20;;;;;;;;;;;11.70;99.90;;;;;;5136170;27;19915;-44
2023/09/24 03:03:46;;;;;;;;;;;11.70;99.90;;;;;;5136124;27;20358;-43
2023/09/24 03:06:12;;;;;;;;;;;11.70;99.90;;;;;;5136173;27;19986;-45
2023/09/24 03:08:38;;;;;;;;;;;11.70;99.90;;;;;;5136274;27;19908;-44
2023/09/24 03:11:11;;;;;;;;;;;11.60;99.90;;;;;;5136157;27;20039;-44
2023/09/24 03:13:36;;;;;;;;;;;11.60;99.90;;;;;;5136061;27;19908;-43
2023/09/24 03:16:02;;;;;;;;;;;11.60;99.90;;;;;;5136129;27;19908;-48
2023/09/24 03:18:27;;;;;;;;;;;11.60;99.90;;;;;;5143652;27;19915;-45
2023/09/24 03:20:54;;;;;;;;;;;11.50;99.90;;;;;;5156608;27;19911;-45
2023/09/24 03:23:19;;;;;;;;;;;11.50;99.90;;;;;;5156391;27;19907;-45
2023/09/24 03:25:45;;;;;;;;;;;11.50;99.90;;;;;;5156507;27;19914;-45
2023/09/24 03:28:10;;;;;;;;;;;11.50;99.90;;;;;;5156510;27;19908;-44
2023/09/24 03:30:36;;;;;;;;;;;11.50;99.90;;;;;;5153415;27;19930;-48
2023/09/24 03:33:03;;;;;;;;;;;11.50;99.90;;;;;;5135269;27;19943;-45
2023/09/24 03:35:29;;;;;;;;;;;11.40;99.90;;;;;;5154609;27;19911;-45
2023/09/24 03:37:55;;;;;;;;;;;11.40;99.90;;;;;;5156269;27;19915;-44
2023/09/24 03:40:22;;;;;;;;;;;11.40;99.90;;;;;;5144644;27;19919;-45
2023/09/24 03:42:48;;;;;;;;;;;11.40;99.90;;;;;;5135373;27;20279;-44
2023/09/24 03:45:14;;;;;;;;;;;11.40;99.90;;;;;;5135189;27;19919;-46
2023/09/24 03:47:40;;;;;;;;;;;11.40;99.90;;;;;;5135283;27;20348;-45
2023/09/24 03:50:09;;;;;;;;;;;11.30;99.90;;;;;;5140628;27;20430;-44
2023/09/24 03:52:37;;;;;;;;;;;11.30;99.90;;;;;;5155433;27;20349;-45
2023/09/24 03:55:04;;;;;;;;;;;11.30;99.90;;;;;;5145494;27;19911;-45
2023/09/24 03:57:30;;;;;;;;;;;11.30;99.90;;;;;;5152574;27;19955;-45
2023/09/24 03:59:56;;;;;;;;;;;11.30;99.90;;;;;;5151824;27;20331;-44
2023/09/24 04:02:22;;;;;;;;;;;11.30;99.90;;;;;;5134979;27;19907;-44
2023/09/24 04:04:48;;;;;;;;;;;11.20;99.90;;;;;;5134963;27;19960;-45
2023/09/24 04:07:15;;;;;;;;;;;11.20;99.90;;;;;;5134951;27;19908;-43
2023/09/24 04:09:41;;;;;;;;;;;11.20;99.90;;;;;;5134861;27;19907;-44
2023/09/24 04:12:08;;;;;;;;;;;11.20;99.90;;;;;;5138481;27;19907;-46
2023/09/24 04:14:34;;;;;;;;;;;11.20;99.90;;;;;;5155377;27;20396;-44
2023/09/24 04:16:59;;;;;;;;;;;11.20;99.90;;;;;;5155496;27;19946;-45
2023/09/24 04:19:25;;;;;;;;;;;11.10;99.90;;;;;;5155362;27;20289;-44
2023/09/24 04:21:51;;;;;;;;;;;11.10;99.90;;;;;;5155440;27;19957;-46
2023/09/24 04:24:17;;;;;;;;;;;11.00;99.90;;;;;;5155209;27;20003;-44
2023/09/24 04:26:45;;;;;;;;;;;11.00;99.90;;;;;;5154671;27;20346;-45
2023/09/24 04:29:11;;;;;;;;;;;11.00;99.90;;;;;;5155338;27;19908;-46
2023/09/24 04:31:36;;;;;;;;;;;10.90;99.90;;;;;;5155207;27;20330;-45
2023/09/24 04:34:02;;;;;;;;;;;11.00;99.90;;;;;;5142531;27;20430;-48
2023/09/24 04:36:27;;;;;;;;;;;10.90;99.90;;;;;;5134321;27;19907;-46
2023/09/24 04:38:53;;;;;;;;;;;10.90;99.90;;;;;;5132435;27;19919;-46
2023/09/24 04:41:18;;;;;;;;;;;10.90;99.90;;;;;;5128544;27;20290;-48
2023/09/24 04:43:45;;;;;;;;;;;10.90;99.90;;;;;;5134362;27;19907;-46
2023/09/24 04:46:11;;;;;;;;;;;10.90;99.90;;;;;;5134305;27;19930;-45
2023/09/24 04:48:36;;;;;;;;;;;10.90;99.90;;;;;;5137756;27;19906;-43
2023/09/24 04:51:02;;;;;;;;;;;10.90;99.90;;;;;;5149726;27;19914;-44
2023/09/24 04:53:27;;;;;;;;;;;10.90;99.90;;;;;;5134053;27;20346;-45
2023/09/24 04:55:54;;;;;;;;;;;10.90;99.90;;;;;;5133797;27;20434;-43
2023/09/24 04:58:19;;;;;;;;;;;10.80;99.90;;;;;;5141788;27;19927;-44
2023/09/24 05:00:44;;;;;;;;;;;10.80;99.90;;;;;;5140469;27;20361;-45
2023/09/24 05:03:10;;;;;;;;;;;10.80;99.90;;;;;;5126352;27;19912;-44
2023/09/24 05:05:40;;;;;;;;;;;10.80;99.90;;;;;;5133833;27;19930;-46
2023/09/24 05:08:05;;;;;;;;;;;10.80;99.90;;;;;;5134046;27;20073;-45
2023/09/24 05:10:32;;;;;;;;;;;10.80;99.90;;;;;;5133703;27;19911;-45
2023/09/24 05:12:58;;;;;;;;;;;10.80;99.90;;;;;;5133925;27;19930;-44
2023/09/24 05:15:23;;;;;;;;;;;10.70;99.90;;;;;;5134090;27;20495;-44
2023/09/24 05:17:48;;;;;;;;;;;10.70;99.90;;;;;;5154351;27;19915;-47
2023/09/24 05:20:15;;;;;;;;;;;10.70;99.90;;;;;;5154411;27;20001;-45
2023/09/24 05:22:41;;;;;;;;;;;10.70;99.90;;;;;;5154480;27;19911;-46
2023/09/24 05:25:07;;;;;;;;;;;10.70;99.90;;;;;;5154230;27;20301;-44
2023/09/24 05:27:34;;;;;;;;;;;10.70;99.90;;;;;;5154337;27;19914;-46
2023/09/24 05:29:59;;;;;;;;;;;10.70;99.90;;;;;;5154362;27;19907;-45
2023/09/24 05:32:25;;;;;;;;;;;10.70;99.90;;;;;;5145758;27;19911;-45
2023/09/24 05:34:54;;;;;;;;;;;10.70;99.90;;;;;;5113046;28;19912;-43
2023/09/24 05:37:19;;;;;;;;;;;10.60;99.90;;;;;;5119713;27;20320;-44
2023/09/24 05:39:45;;;;;;;;;;;10.70;99.90;;;;;;5125795;27;19915;-45
2023/09/24 05:42:10;;;;;;;;;;;10.60;99.90;;;;;;5129479;27;19924;-45
2023/09/24 05:44:36;;;;;;;;;;;10.60;99.90;;;;;;5117040;28;19911;-43
2023/09/24 05:47:02;;;;;;;;;;;10.60;99.90;;;;;;5123711;27;19918;-44
2023/09/24 05:49:28;;;;;;;;;;;10.60;99.90;;;;;;5124944;27;20286;-44
2023/09/24 05:51:54;;;;;;;;;;;10.60;99.90;;;;;;5128508;27;19915;-45
2023/09/24 05:54:19;;;;;;;;;;;10.70;99.90;;;;;;5123557;27;19929;-46
2023/09/24 05:56:45;;;;;;;;;;;10.70;99.90;;;;;;5124531;27;19912;-45
2023/09/24 05:59:10;;;;;;;;;;;10.70;99.90;;;;;;5118639;27;19922;-44
2023/09/24 06:01:36;;;;;;;;;;;10.70;99.90;;;;;;5122634;27;19965;-49
2023/09/24 06:04:02;;;;;;;;;;;10.60;99.90;;;;;;5128196;27;19908;-43
2023/09/24 06:06:27;;;;;;;;;;;10.70;99.90;;;;;;5127037;27;19919;-44
2023/09/24 06:08:53;;;;;;;;;;;10.70;99.90;;;;;;5125294;27;19911;-44
2023/09/24 06:11:18;;;;;;;;;;;10.70;99.90;;;;;;5131004;27;20355;-45
2023/09/24 06:13:44;;;;;;;;;;;10.70;99.90;;;;;;5130711;27;19915;-46
2023/09/24 06:16:09;;;;;;;;;;;10.80;99.90;;;;;;5122362;27;19912;-44
2023/09/24 06:18:35;;;;;;;;;;;10.80;99.90;;;;;;5108444;28;20472;-46
2023/09/24 06:21:04;;;;;;;;;;;10.80;99.90;;;;;;5116503;27;19911;-48
2023/09/24 06:23:30;;;;;;;;;;;10.90;99.90;;;;;;5116394;27;19943;-46
2023/09/24 06:25:56;;;;;;;;;;;10.90;99.90;;;;;;5105368;27;20361;-45
2023/09/24 06:28:21;;;;;;;;;;;10.90;99.90;;;;;;5116165;28;20416;-45
2023/09/24 06:30:47;;;;;;;;;;;10.90;99.90;;;;;;5113642;28;19907;-45
2023/09/24 06:33:12;;;;;;;;;;;10.90;99.90;;;;;;5121865;27;19928;-44
2023/09/24 06:35:38;;;;;;;;;;;11.00;99.90;;;;;;5126771;27;19908;-44
2023/09/24 06:38:03;;;;;;;;;;;11.00;99.90;;;;;;5147687;27;19931;-46
2023/09/24 06:40:29;;;;;;;;;;;11.00;99.90;;;;;;5133502;27;19911;-45
2023/09/24 06:42:55;;;;;;;;;;;11.10;99.90;;;;;;5129628;27;19930;-44
2023/09/24 06:45:21;;;;;;;;;;;11.10;99.90;;;;;;5135342;27;20346;-44
2023/09/24 06:47:46;;;;;;;;;;;11.20;99.90;;;;;;5135986;27;20255;-45
2023/09/24 06:50:12;;;;;;;;;;;11.30;99.90;;;;;;5128123;27;19907;-49
2023/09/24 06:52:39;;;;;;;;;;;11.30;99.90;;;;;;5115832;28;20379;-45
2023/09/24 06:55:06;;;;;;;;;;;11.40;99.90;;;;;;5116995;27;19918;-47
2023/09/24 06:57:31;;;;;;;;;;;11.40;99.90;;;;;;5115446;28;20373;-44
2023/09/24 06:59:57;;;;;;;;;;;11.50;99.90;;;;;;5122316;27;19907;-45
2023/09/24 07:02:23;;;;;;;;;;;11.50;99.90;;;;;;5126306;27;19914;-46
2023/09/24 07:04:50;;;;;;;;;;;11.60;99.90;;;;;;5136123;27;20319;-44
2023/09/24 07:07:15;;;;;;;;;;;11.60;99.90;;;;;;5135994;27;19942;-45
2023/09/24 07:09:41;;;;;;;;;;;11.70;99.90;;;;;;5141644;27;20396;-43
2023/09/24 07:12:06;;;;;;;;;;;11.70;99.90;;;;;;5146151;27;20273;-44
2023/09/24 07:14:32;;;;;;;;;;;11.80;99.90;;;;;;5135831;27;20275;-44
2023/09/24 07:16:57;;;;;;;;;;;11.80;99.90;;;;;;5120320;27;20014;-45
2023/09/24 07:19:24;;;;;;;;;;;11.90;99.90;;;;;;5124183;27;19916;-45
2023/09/24 07:21:49;;;;;;;;;;;11.90;99.90;;;;;;5146217;27;19933;-44
2023/09/24 07:24:15;;;;;;;;;;;12.00;99.90;;;;;;5135842;27;20429;-45
2023/09/24 07:26:41;;;;;;;;;;;12.00;99.90;;;;;;5135663;27;19934;-43
2023/09/24 07:29:07;;;;;;;;;;;12.00;99.90;;;;;;5135717;27;20015;-45
2023/09/24 07:31:34;;;;;;;;;;;12.10;99.90;;;;;;5135405;27;19990;-43
2023/09/24 07:34:00;;;;;;;;;;;12.10;99.90;;;;;;5135149;27;20315;-44
2023/09/24 07:36:26;;;;;;;;;;;12.20;99.90;;;;;;5135463;27;20002;-45
2023/09/24 07:38:51;;;;;;;;;;;12.20;99.90;;;;;;5135233;27;20282;-46
2023/09/24 07:41:17;;;;;;;;;;;12.20;99.90;;;;;;5135394;27;19915;-44
2023/09/24 07:43:42;;;;;;;;;;;12.30;99.90;;;;;;5135163;27;19912;-44
2023/09/24 07:46:15;;;;;;;;;;;12.30;99.90;;;;;;5135293;27;19951;-46
2023/09/24 07:48:41;;;;;;;;;;;12.40;99.90;;;;;;5135264;27;19908;-47
2023/09/24 07:51:07;;;;;;;;;;;12.40;99.90;;;;;;5135185;27;19972;-45
2023/09/24 07:53:32;;;;;;;;;;;12.50;99.90;;;;;;5135200;27;19912;-45
2023/09/24 07:56:02;;;;;;;;;;;12.50;99.90;;;;;;5143273;27;19918;-45
2023/09/24 07:58:30;;;;;;;;;;;12.60;99.90;;;;;;5151718;27;19922;-46
2023/09/24 08:01:00;;;;;;;;;;;12.70;99.90;;;;;;5124680;27;20362;-45
2023/09/24 08:03:26;;;;;;;;;;;12.70;99.90;;;;;;5114241;28;19953;-45
2023/09/24 08:05:52;;;;;;;;;;;12.80;99.90;;;;;;5120707;27;19911;-44
2023/09/24 08:08:17;;;;;;;;;;;12.90;99.90;;;;;;5131781;27;19979;-45
2023/09/24 08:10:43;;;;;;;;;;;12.90;99.90;;;;;;5131267;27;19919;-44
2023/09/24 08:13:08;;;;;;;;;;;13.00;99.90;;;;;;5134309;27;20417;-45
2023/09/24 08:15:34;;;;;;;;;;;13.10;99.90;;;;;;5140367;27;19926;-47
2023/09/24 08:18:00;;;;;;;;;;;13.10;99.90;;;;;;5155259;27;19915;-46
2023/09/24 08:20:26;;;;;;;;;;;13.20;99.90;;;;;;5152239;27;19907;-45
2023/09/24 08:22:52;;;;;;;;;;;13.20;99.90;;;;;;5129065;27;19999;-47
2023/09/24 08:25:17;;;;;;;;;;;13.30;99.90;;;;;;5130792;27;19968;-44
2023/09/24 08:27:43;;;;;;;;;;;13.30;99.90;;;;;;5132034;27;20382;-44
2023/09/24 08:30:08;;;;;;;;;;;13.40;99.90;;;;;;5126727;27;19919;-49
2023/09/24 08:32:34;;;;;;;;;;;13.40;99.90;;;;;;5118817;27;19919;-44
2023/09/24 08:35:00;;;;;;;;;;;13.50;99.90;;;;;;5113474;28;20393;-45
2023/09/24 08:37:26;;;;;;;;;;;13.60;99.90;;;;;;5126362;27;19972;-46
2023/09/24 08:39:51;;;;;;;;;;;13.60;99.90;;;;;;5119183;27;19911;-45
2023/09/24 08:42:18;;;;;;;;;;;13.70;99.90;;;;;;5134504;27;20326;-45
2023/09/24 08:44:46;;;;;;;;;;;13.70;99.90;;;;;;5119290;27;19907;-49
2023/09/24 08:47:12;;;;;;;;;;;13.70;99.90;;;;;;5154718;27;19963;-44
2023/09/24 08:49:37;;;;;;;;;;;13.80;99.90;;;;;;5155472;27;19918;-44
2023/09/24 08:52:03;;;;;;;;;;;13.90;99.90;;;;;;5155461;27;20018;-45
2023/09/24 08:54:30;;;;;;;;;;;13.90;99.90;;;;;;5155417;27;19908;-45
2023/09/24 08:56:55;;;;;;;;;;;14.00;99.90;;;;;;5154933;27;20333;-45
2023/09/24 08:59:21;;;;;;;;;;;14.00;99.90;;;;;;5148754;27;19922;-45
2023/09/24 09:01:53;;;;;;;;;;;14.10;99.90;;;;;;5124106;27;19911;-45
2023/09/24 09:04:19;;;;;;;;;;;14.20;99.90;;;;;;5119860;27;20437;-47
2023/09/24 09:06:44;;;;;;;;;;;14.20;99.90;;;;;;5129069;27;19908;-45
2023/09/24 09:09:10;;;;;;;;;;;14.30;99.90;;;;;;5134409;27;19918;-44
2023/09/24 09:11:37;;;;;;;;;;;14.30;99.90;;;;;;5132625;27;19994;-45
2023/09/24 09:14:02;;;;;;;;;;;14.40;99.90;;;;;;5121720;27;19990;-44
2023/09/24 09:16:28;;;;;;;;;;;14.40;99.90;;;;;;5122854;27;20056;-45
2023/09/24 09:19:00;;;;;;;;;;;14.50;99.90;;;;;;5122044;27;19928;-44
2023/09/24 09:21:25;;;;;;;;;;;14.60;99.90;;;;;;5131292;27;20317;-44
2023/09/24 09:23:51;;;;;;;;;;;14.60;99.90;;;;;;5131585;28;19912;-45
2023/09/24 09:26:17;;;;;;;;;;;14.60;99.90;;;;;;5132381;28;20048;-45
2023/09/24 09:28:42;;;;;;;;;;;14.70;99.90;;;;;;5127077;28;19916;-45
2023/09/24 09:31:08;;;;;;;;;;;14.80;99.90;;;;;;5133188;28;19911;-44
2023/09/24 09:33:44;;;;;;;;;;;14.80;99.90;;;;;;5133281;27;19923;-46
2023/09/24 09:36:23;;;;;;;;;;;14.90;99.90;;;;;;5131231;28;20397;-44
2023/09/24 09:38:50;;;;;;;;;;;15.00;99.90;;;;;;5132289;28;19928;-45
2023/09/24 09:41:16;;;;;;;;;;;15.10;99.90;;;;;;5133188;28;19912;-47
2023/09/24 09:43:42;;;;;;;;;;;15.20;99.90;;;;;;5126822;27;19915;-46
2023/09/24 09:46:09;;;;;;;;;;;15.20;99.90;;;;;;5147761;27;19911;-46
2023/09/24 09:48:36;;;;;;;;;;;15.30;99.90;;;;;;5136020;27;20386;-45
2023/09/24 09:51:07;;;;;;;;;;;15.50;99.90;;;;;;5126193;27;20006;-45
2023/09/24 09:53:37;;;;;;;;;;;15.70;99.90;;;;;;5124422;28;19955;-46
2023/09/24 09:56:04;;;;;;;;;;;15.70;99.90;;;;;;5121814;28;20032;-45
2023/09/24 09:58:39;;;;;;;;;;;15.70;99.90;;;;;;5128808;28;19958;-46
2023/09/24 10:01:05;;;;;;;;;;;15.70;99.90;;;;;;5127964;28;19919;-44
2023/09/24 10:03:32;;;;;;;;;;;15.80;99.90;;;;;;5117532;28;19908;-44
2023/09/24 10:05:59;;;;;;;;;;;15.80;99.90;;;;;;5113531;28;19907;-44
2023/09/24 10:08:34;;;;;;;;;;;15.90;99.90;;;;;;5112685;28;19972;-44
2023/09/24 10:11:00;;;;;;;;;;;15.90;99.90;;;;;;5112352;28;20327;-44
2023/09/24 10:13:46;;;;;;;;;;;15.90;99.90;;;;;;5131289;28;19911;-47
2023/09/24 10:16:23;;;;;;;;;;;16.00;99.90;;;;;;5129959;28;19912;-45
2023/09/24 10:18:59;;;;;;;;;;;16.10;99.90;;;;;;5122065;28;19920;-44
2023/09/24 10:21:38;;;;;;;;;;;16.20;99.90;;;;;;5127246;27;19918;-45
2023/09/24 10:24:03;;;;;;;;;;;16.30;99.90;;;;;;5156014;27;19994;-44
2023/09/24 10:26:48;;;;;;;;;;;16.30;99.90;;;;;;5145097;27;19962;-44
2023/09/24 10:29:14;;;;;;;;;;;16.40;99.90;;;;;;5148097;27;19916;-45
2023/09/24 10:31:59;;;;;;;;;;;16.50;99.90;;;;;;5137161;27;19908;-45
2023/09/24 10:34:24;;;;;;;;;;;16.60;99.90;;;;;;5137014;27;19927;-43
2023/09/24 10:37:08;;;;;;;;;;;16.60;99.90;;;;;;5137548;27;20047;-45
2023/09/24 10:39:54;;;;;;;;;;;16.70;99.90;;;;;;5136322;27;19937;-44
2023/09/24 10:42:19;;;;;;;;;;;16.70;99.90;;;;;;5127079;27;19919;-44
2023/09/24 10:44:45;;;;;;;;;;;16.80;99.90;;;;;;5136533;27;19908;-44
2023/09/24 10:47:27;;;;;;;;;;;16.80;99.90;;;;;;5116681;28;20308;-44
2023/09/24 10:50:05;;;;;;;;;;;16.90;99.90;;;;;;5115882;28;19915;-45
2023/09/24 10:52:50;;;;;;;;;;;16.90;99.90;;;;;;5147344;27;19960;-45
2023/09/24 10:55:16;;;;;;;;;;;16.90;99.90;;;;;;5136554;27;20303;-44
2023/09/24 10:57:45;;;;;;;;;;;17.00;99.90;;;;;;5126561;27;19970;-45
2023/09/24 11:00:17;;;;;;;;;;;17.10;99.90;;;;;;5116154;28;20006;-46
2023/09/24 11:02:43;;;;;;;;;;;17.20;99.90;;;;;;5115495;28;19907;-43
2023/09/24 11:05:09;;;;;;;;;;;17.20;99.90;;;;;;5129811;27;20437;-45
2023/09/24 11:07:34;;;;;;;;;;;17.40;99.90;;;;;;5130260;27;19965;-45
2023/09/24 11:10:00;;;;;;;;;;;17.40;99.90;;;;;;5120191;27;20365;-44
2023/09/24 11:12:26;;;;;;;;;;;17.50;99.90;;;;;;5131163;27;19915;-44
2023/09/24 11:14:58;;;;;;;;;;;17.60;99.90;;;;;;5135735;27;19915;-43
2023/09/24 11:17:24;;;;;;;;;;;17.50;99.90;;;;;;5136439;27;19939;-44
2023/09/24 11:19:50;;;;;;;;;;;17.50;99.90;;;;;;5131323;27;19912;-44
2023/09/24 11:22:16;;;;;;;;;;;17.50;99.90;;;;;;5116043;28;20067;-44
2023/09/24 11:24:42;;;;;;;;;;;17.60;99.90;;;;;;5134530;27;19907;-44
2023/09/24 11:27:07;;;;;;;;;;;17.60;99.90;;;;;;5131274;27;19931;-44
2023/09/24 11:29:33;;;;;;;;;;;17.70;99.90;;;;;;5115675;28;20274;-44
2023/09/24 11:31:58;;;;;;;;;;;17.70;99.90;;;;;;5127847;27;19907;-43
2023/09/24 11:34:24;;;;;;;;;;;17.80;99.90;;;;;;5142344;27;19979;-44
2023/09/24 11:36:53;;;;;;;;;;;17.80;99.90;;;;;;5157063;27;20509;-43
2023/09/24 11:39:19;;;;;;;;;;;17.90;99.90;;;;;;5156632;27;19954;-43
2023/09/24 11:41:45;;;;;;;;;;;18.00;99.90;;;;;;5149676;27;19947;-44
2023/09/24 11:44:11;;;;;;;;;;;18.00;99.90;;;;;;5135987;27;19911;-44
2023/09/24 11:46:38;;;;;;;;;;;18.10;99.90;;;;;;5132451;27;19912;-44
2023/09/24 11:49:04;;;;;;;;;;;18.20;99.90;;;;;;5122470;27;20370;-43
2023/09/24 11:51:30;;;;;;;;;;;18.20;99.90;;;;;;5131041;27;19915;-44
2023/09/24 11:53:56;;;;;;;;;;;18.30;99.90;;;;;;5127983;27;19908;-44
2023/09/24 11:56:22;;;;;;;;;;;18.40;99.90;;;;;;5133637;27;19919;-44
2023/09/24 11:58:48;;;;;;;;;;;18.50;99.90;;;;;;5133178;27;19916;-43
2023/09/24 12:01:13;;;;;;;;;;;18.50;99.90;;;;;;5133540;27;19914;-43
2023/09/24 12:03:39;;;;;;;;;;;18.60;99.90;;;;;;5114756;27;20406;-43
2023/09/24 12:06:05;;;;;;;;;;;18.60;99.90;;;;;;5152553;27;19915;-43
2023/09/24 12:08:30;;;;;;;;;;;18.60;99.90;;;;;;5131250;27;19952;-44
2023/09/24 12:10:56;;;;;;;;;;;18.60;99.90;;;;;;5125168;27;19966;-43
2023/09/24 12:13:22;;;;;;;;;;;18.70;99.90;;;;;;5132383;27;19911;-44
2023/09/24 12:15:47;;;;;;;;;;;18.80;99.90;;;;;;5120322;27;20363;-43
2023/09/24 12:18:13;;;;;;;;;;;18.90;99.90;;;;;;5132192;27;19923;-44
2023/09/24 12:20:40;;;;;;;;;;;19.00;99.90;;;;;;5133006;27;19922;-44
2023/09/24 12:23:07;;;;;;;;;;;19.10;99.90;;;;;;5118987;27;19935;-43
2023/09/24 12:25:36;;;;;;;;;;;19.20;99.90;;;;;;5127024;27;19908;-43
2023/09/24 12:28:09;;;;;;;;;;;19.30;99.90;;;;;;5129456;27;20289;-43
2023/09/24 12:30:37;;;;;;;;;;;19.30;99.90;;;;;;5135132;27;20458;-43
2023/09/24 12:33:03;;;;;;;;;;;19.30;99.90;;;;;;5122092;27;19927;-43
2023/09/24 12:35:29;;;;;;;;;;;19.40;99.90;;;;;;5109510;28;19907;-43
2023/09/24 12:37:54;;;;;;;;;;;19.40;99.90;;;;;;5102682;28;19927;-43
2023/09/24 12:40:23;;;;;;;;;;;19.30;99.90;;;;;;5106126;28;20290;-43
2023/09/24 12:42:49;;;;;;;;;;;19.20;99.90;;;;;;5107008;28;19920;-44
2023/09/24 12:45:16;;;;;;;;;;;19.40;99.90;;;;;;5093334;28;19912;-44
2023/09/24 12:47:41;;;;;;;;;;;19.40;99.90;;;;;;5107243;28;20028;-43
2023/09/24 12:50:08;;;;;;;;;;;19.50;99.90;;;;;;5102244;28;19999;-44
2023/09/24 12:52:35;;;;;;;;;;;19.40;99.90;;;;;;5101055;28;19912;-44
2023/09/24 12:55:01;;;;;;;;;;;19.50;99.90;;;;;;5095135;28;20386;-44
2023/09/24 12:57:27;;;;;;;;;;;19.70;99.90;;;;;;5104926;28;20035;-43
2023/09/24 12:59:52;;;;;;;;;;;19.90;99.90;;;;;;5092943;28;20335;-44
2023/09/24 13:02:18;;;;;;;;;;;20.10;99.90;;;;;;5111773;28;20340;-44
2023/09/24 13:04:44;;;;;;;;;;;20.30;99.90;;;;;;5099627;28;19908;-43
2023/09/24 13:07:09;;;;;;;;;;;20.60;99.90;;;;;;5093007;28;20053;-43
2023/09/24 13:09:35;;;;;;;;;;;20.90;99.90;;;;;;5108497;28;19912;-43
2023/09/24 13:12:01;;;;;;;;;;;20.80;99.90;;;;;;5113331;28;19908;-44
2023/09/24 13:14:26;;;;;;;;;;;20.70;99.90;;;;;;5113273;28;19915;-43
2023/09/24 13:16:52;;;;;;;;;;;20.70;99.90;;;;;;5102487;28;20426;-44
2023/09/24 13:19:17;;;;;;;;;;;20.80;99.90;;;;;;5099170;28;19985;-43
2023/09/24 13:21:43;;;;;;;;;;;20.80;99.90;;;;;;5099557;28;19918;-43
2023/09/24 13:24:08;;;;;;;;;;;20.80;99.90;;;;;;5112227;28;19947;-44
2023/09/24 13:26:35;;;;;;;;;;;20.80;99.90;;;;;;5106955;28;19911;-43
2023/09/24 13:29:02;;;;;;;;;;;20.90;99.90;;;;;;5110609;28;19957;-43
2023/09/24 13:31:27;;;;;;;;;;;21.10;99.90;;;;;;5112273;28;19953;-43
2023/09/24 13:33:53;;;;;;;;;;;21.10;99.90;;;;;;5106957;28;19924;-43
2023/09/24 13:36:18;;;;;;;;;;;21.30;99.90;;;;;;5113018;28;19908;-44
2023/09/24 13:38:44;;;;;;;;;;;21.60;99.90;;;;;;5122995;28;19923;-44
2023/09/24 13:41:10;;;;;;;;;;;21.80;99.90;;;;;;5144593;27;19911;-43
2023/09/24 13:43:36;;;;;;;;;;;22.10;99.90;;;;;;5148036;27;19916;-43
2023/09/24 13:46:01;;;;;;;;;;;22.30;99.90;;;;;;5127569;28;19919;-45
2023/09/24 13:48:26;;;;;;;;;;;22.40;99.90;;;;;;5113524;28;19908;-43
2023/09/24 13:50:52;;;;;;;;;;;22.60;99.90;;;;;;5113661;28;19988;-45
2023/09/24 13:53:18;;;;;;;;;;;22.70;99.90;;;;;;5113545;28;20267;-44
2023/09/24 13:55:44;;;;;;;;;;;22.80;99.90;;;;;;5113696;28;19908;-44
2023/09/24 13:58:11;;;;;;;;;;;23.20;99.90;;;;;;5129323;27;20069;-44
2023/09/24 14:00:36;;;;;;;;;;;23.50;99.90;;;;;;5138073;27;19907;-46
2023/09/24 14:03:02;;;;;;;;;;;23.90;99.90;;;;;;5138104;27;19915;-45
2023/09/24 14:05:30;;;;;;;;;;;24.20;99.90;;;;;;5137982;27;19951;-44
2023/09/24 14:12:17;;;;;;;;;;;24.30;99.90;;;;;;5138068;27;19911;-44
2023/09/24 14:13:25;;;;;;;;;;;24.80;99.90;;;;;;5120503;27;20060;-44
2023/09/24 14:15:50;;;;;;;;;;;25.00;99.90;;;;;;5137779;27;19990;-44